CheckWX is a tool to help pilots better visualize weather data.  It is not intended as a substitute for an official pre-flight weather briefing.

12:49:06 UTC

KUAO TAF
Aurora State Airport
Aurora, Oregon, USA
KUAO 191133Z 1912/2012 03008KT P6SM SKC FM192200 03014G20KT P6SM SKC FM200300 03012G18KT P6SM SKC FM200500 02008KT P6SM SKC

Feb-19@
12:00 UTC

Feb-19 @ 12:00 UTC

Feb-19@
22:00 UTC

Feb-19 @ 22:00 UTC

KUAO 191133Z 1912/2012 03008KT P6SM SKC
Wind
  • 030° at 8 KTS
Cloud Levels
  • Clear skies

Feb-19@
22:00 UTC

Feb-19 @ 22:00 UTC

Feb-20@
03:00 UTC

Feb-20 @ 03:00 UTC

FM192200 03014G20KT P6SM SKC

From

From Standard forecast or significant change

Wind
  • 030° at 14 KTS
  • {Gusting to 20 KTS
Cloud Levels
  • Clear skies

Feb-20@
03:00 UTC

Feb-20 @ 03:00 UTC

Feb-20@
05:00 UTC

Feb-20 @ 05:00 UTC

FM200300 03012G18KT P6SM SKC

From

From Standard forecast or significant change

Wind
  • 030° at 12 KTS
  • {Gusting to 18 KTS
Cloud Levels
  • Clear skies

Feb-20@
05:00 UTC

Feb-20 @ 05:00 UTC

Feb-20@
12:00 UTC

Feb-20 @ 12:00 UTC

FM200500 02008KT P6SM SKC

From

From Standard forecast or significant change

Wind
  • 020° at 8 KTS
Cloud Levels
  • Clear skies